createdAt,value
2022-12-04T00:00:44.371Z,27.03
2022-12-04T00:03:10.894Z,27.67
2022-12-04T00:05:38.129Z,28.50
2022-12-04T00:08:09.642Z,29.20
2022-12-04T00:10:53.074Z,27.27
2022-12-04T00:13:23.172Z,27.27
2022-12-04T00:15:50.469Z,27.87
2022-12-04T00:18:17.063Z,26.50
2022-12-04T00:20:45.189Z,27.47
2022-12-04T00:23:12.480Z,27.60
2022-12-04T00:25:41.496Z,28.23
2022-12-04T00:28:13.401Z,26.20
2022-12-04T00:30:46.197Z,27.00
2022-12-04T00:33:13.883Z,26.30
2022-12-04T00:35:42.571Z,26.57
2022-12-04T00:38:10.589Z,28.00
2022-12-04T00:40:37.580Z,28.07
2022-12-04T00:43:04.905Z,26.77
2022-12-04T00:45:33.155Z,26.93
2022-12-04T00:48:00.744Z,27.63
2022-12-04T00:50:27.387Z,27.67
2022-12-04T00:52:54.469Z,27.33
2022-12-04T00:55:21.431Z,26.20
2022-12-04T00:57:49.222Z,27.10
2022-12-04T01:00:16.336Z,27.03
2022-12-04T01:02:43.862Z,26.93
2022-12-04T01:05:16.378Z,25.33
2022-12-04T01:07:44.476Z,28.13
2022-12-04T01:10:14.682Z,27.03
2022-12-04T01:12:42.390Z,26.27
2022-12-04T01:15:11.717Z,26.10
2022-12-04T01:17:39.326Z,26.77
2022-12-04T01:20:06.795Z,27.97
2022-12-04T01:22:35.209Z,26.77
2022-12-04T01:25:03.101Z,26.13
2022-12-04T01:27:31.551Z,26.10
2022-12-04T01:29:59.601Z,25.83
2022-12-04T01:32:28.158Z,25.63
2022-12-04T01:34:57.942Z,26.93
2022-12-04T01:37:26.916Z,26.50
2022-12-04T01:39:54.669Z,26.33
2022-12-04T01:42:24.354Z,28.30
2022-12-04T01:45:29.634Z,26.07
2022-12-04T01:48:00.110Z,26.97
2022-12-04T01:50:27.576Z,26.43
2022-12-04T01:52:54.932Z,26.93
2022-12-04T01:55:24.745Z,28.77
2022-12-04T01:57:53.479Z,26.23
2022-12-04T02:00:21.723Z,26.40
2022-12-04T02:02:50.999Z,27.73
2022-12-04T02:05:24.438Z,26.43
2022-12-04T02:07:54.084Z,25.90
2022-12-04T02:10:28.790Z,27.30
2022-12-04T02:12:57.427Z,26.57
2022-12-04T02:15:34.167Z,26.47
2022-12-04T02:18:07.728Z,27.07
2022-12-04T02:20:58.158Z,28.03
2022-12-04T02:23:48.616Z,27.70
2022-12-04T02:26:30.171Z,26.43
2022-12-04T02:29:16.253Z,25.87
2022-12-04T02:32:08.773Z,28.37
2022-12-04T02:34:42.693Z,27.20
2022-12-04T02:37:42.231Z,26.57
2022-12-04T02:40:17.884Z,26.57
2022-12-04T02:43:03.494Z,28.57
2022-12-04T02:45:37.086Z,28.37
2022-12-04T02:48:08.587Z,28.17
2022-12-04T02:50:39.816Z,27.70
2022-12-04T02:53:18.621Z,27.03
2022-12-04T02:55:51.526Z,26.80
2022-12-04T02:58:35.871Z,28.53
2022-12-04T03:01:19.975Z,28.27
2022-12-04T03:03:53.024Z,30.20
2022-12-04T03:06:20.995Z,28.27
2022-12-04T03:08:55.847Z,28.57
2022-12-04T03:11:23.794Z,28.37
2022-12-04T03:13:56.273Z,28.63
2022-12-04T03:16:28.486Z,27.83
2022-12-04T03:18:56.753Z,27.77
2022-12-04T03:21:33.430Z,27.80
2022-12-04T03:24:11.556Z,27.17
2022-12-04T03:26:42.430Z,28.17
2022-12-04T03:29:23.684Z,27.83
2022-12-04T03:32:02.874Z,29.23
2022-12-04T03:34:42.606Z,29.23
2022-12-04T03:37:16.968Z,26.87
2022-12-04T03:39:52.788Z,26.70
2022-12-04T03:42:25.229Z,28.70
2022-12-04T03:44:58.903Z,28.27
2022-12-04T03:47:46.907Z,27.83
2022-12-04T03:50:30.588Z,28.07
2022-12-04T03:53:05.955Z,28.30
2022-12-04T03:55:41.857Z,27.83
2022-12-04T03:58:13.942Z,28.60
2022-12-04T04:00:43.529Z,27.97
2022-12-04T04:03:19.854Z,27.83
2022-12-04T04:05:51.737Z,28.73
2022-12-04T04:08:26.703Z,28.90
2022-12-04T04:11:06.589Z,27.07
2022-12-04T04:14:01.545Z,28.07
2022-12-04T04:16:49.069Z,26.90
2022-12-04T04:19:37.248Z,28.57
2022-12-04T04:22:26.476Z,28.40
2022-12-04T04:25:03.115Z,28.23
2022-12-04T04:27:30.995Z,29.13
2022-12-04T04:30:01.651Z,28.00
2022-12-04T04:32:32.763Z,29.07
2022-12-04T04:35:09.395Z,27.87
2022-12-04T04:37:59.872Z,26.27
2022-12-04T04:40:53.112Z,27.57
2022-12-04T04:43:34.901Z,28.03
2022-12-04T04:46:26.820Z,29.60
2022-12-04T04:48:59.215Z,27.30
2022-12-04T04:51:27.238Z,27.00
2022-12-04T04:53:58.067Z,27.13
2022-12-04T04:56:27.087Z,27.73
2022-12-04T04:58:57.164Z,27.00
2022-12-04T05:01:28.546Z,27.47
2022-12-04T05:03:57.623Z,28.70
2022-12-04T05:06:26.269Z,26.50
2022-12-04T05:08:54.302Z,27.93
2022-12-04T05:11:24.598Z,23.97
2022-12-04T05:13:53.243Z,28.10
2022-12-04T05:16:20.916Z,28.50
2022-12-04T05:19:07.635Z,26.17
2022-12-04T05:21:35.426Z,24.43
2022-12-04T05:24:04.577Z,27.43
2022-12-04T05:26:31.636Z,26.07
2022-12-04T05:28:58.330Z,26.87
2022-12-04T05:31:26.954Z,25.90
2022-12-04T05:33:54.567Z,27.97
2022-12-04T05:36:22.112Z,25.53
2022-12-04T05:38:49.795Z,27.30
2022-12-04T05:41:17.087Z,26.87
2022-12-04T05:43:44.047Z,27.50
2022-12-04T05:46:11.388Z,25.27
2022-12-04T05:48:38.222Z,26.70
2022-12-04T05:51:11.024Z,26.67
2022-12-04T05:53:41.807Z,25.77
2022-12-04T05:56:09.599Z,25.27
2022-12-04T05:58:37.919Z,26.23
2022-12-04T06:01:13.955Z,24.77
2022-12-04T06:03:41.080Z,25.53
2022-12-04T06:06:23.173Z,25.43
2022-12-04T06:08:52.110Z,26.33
2022-12-04T06:11:25.001Z,25.93
2022-12-04T06:13:53.161Z,27.10
2022-12-04T06:16:28.882Z,28.13
2022-12-04T06:18:59.023Z,24.30
2022-12-04T06:21:27.695Z,22.23
2022-12-04T06:23:54.898Z,24.67
2022-12-04T06:26:22.403Z,26.93
2022-12-04T06:28:49.459Z,26.50
2022-12-04T06:31:17.066Z,25.93
2022-12-04T06:33:43.653Z,25.43
2022-12-04T06:36:21.175Z,27.37
2022-12-04T06:38:50.001Z,25.07
2022-12-04T06:41:19.221Z,26.20
2022-12-04T06:43:46.885Z,26.33
2022-12-04T06:46:16.331Z,26.63
2022-12-04T06:48:43.137Z,26.33
2022-12-04T06:51:33.644Z,26.27
2022-12-04T06:54:01.060Z,25.93
2022-12-04T06:56:30.717Z,25.60
2022-12-04T06:58:59.578Z,25.30
2022-12-04T07:01:29.211Z,25.60
2022-12-04T07:03:57.029Z,27.43
2022-12-04T07:06:32.357Z,26.67
2022-12-04T07:09:05.248Z,24.87
2022-12-04T07:11:32.608Z,26.57
2022-12-04T07:13:59.454Z,25.53
2022-12-04T07:16:27.191Z,25.10
2022-12-04T07:18:54.815Z,25.67
2022-12-04T07:21:24.163Z,25.17
2022-12-04T07:23:53.227Z,26.63
2022-12-04T07:26:20.244Z,26.90
2022-12-04T07:28:47.652Z,25.50
2022-12-04T07:31:16.958Z,25.10
2022-12-04T07:33:43.863Z,26.23
2022-12-04T07:36:14.515Z,27.20
2022-12-04T07:38:42.206Z,25.90
2022-12-04T07:41:10.717Z,27.37
2022-12-04T07:43:37.341Z,25.83
2022-12-04T07:46:10.181Z,25.77
2022-12-04T07:48:37.795Z,26.13
2022-12-04T07:51:16.737Z,26.87
2022-12-04T07:53:44.701Z,26.77
2022-12-04T07:56:13.525Z,26.60
2022-12-04T07:58:42.042Z,27.13
2022-12-04T08:01:17.389Z,25.97
2022-12-04T08:03:48.634Z,26.20
2022-12-04T08:06:17.501Z,27.53
2022-12-04T08:08:44.463Z,26.43
2022-12-04T08:11:13.495Z,28.23
2022-12-04T08:13:40.400Z,25.63
2022-12-04T08:16:08.611Z,25.73
2022-12-04T08:18:35.983Z,25.23
2022-12-04T08:21:06.014Z,25.70
2022-12-04T08:23:33.294Z,25.47
2022-12-04T08:26:00.614Z,25.60
2022-12-04T08:28:27.130Z,23.67
2022-12-04T08:30:53.778Z,24.43
2022-12-04T08:33:20.342Z,24.33
2022-12-04T08:35:46.764Z,25.17
2022-12-04T08:38:13.989Z,25.47
2022-12-04T08:40:40.708Z,24.17
2022-12-04T08:43:07.572Z,25.57
2022-12-04T08:45:34.296Z,25.40
2022-12-04T08:48:00.776Z,24.50
2022-12-04T08:50:27.336Z,24.23
2022-12-04T08:52:53.820Z,24.67
2022-12-04T08:55:20.303Z,25.17
2022-12-04T08:57:46.695Z,22.70
2022-12-04T09:00:15.401Z,24.37
2022-12-04T09:02:42.202Z,24.93
2022-12-04T09:05:08.929Z,24.20
2022-12-04T09:07:35.474Z,23.83
2022-12-04T09:10:02.060Z,24.00
2022-12-04T09:12:28.749Z,23.63
2022-12-04T09:14:55.324Z,23.77
2022-12-04T09:17:21.770Z,25.67
2022-12-04T09:19:48.198Z,24.23
2022-12-04T09:22:14.834Z,25.53
2022-12-04T09:24:41.351Z,24.57
2022-12-04T09:27:14.319Z,25.27
2022-12-04T09:29:41.305Z,25.47
2022-12-04T09:32:07.712Z,27.33
2022-12-04T09:34:34.421Z,26.73
2022-12-04T09:37:01.016Z,24.93
2022-12-04T09:39:27.470Z,24.17
2022-12-04T09:42:08.657Z,25.33
2022-12-04T09:44:39.542Z,23.97
2022-12-04T09:47:11.991Z,24.47
2022-12-04T09:49:42.377Z,24.50
2022-12-04T09:52:26.533Z,25.03
2022-12-04T09:54:54.025Z,26.23
2022-12-04T09:57:42.498Z,24.27
2022-12-04T10:00:14.345Z,25.47
2022-12-04T10:02:43.237Z,25.57
2022-12-04T10:05:19.967Z,24.20
2022-12-04T10:08:13.048Z,25.53
2022-12-04T10:10:42.351Z,27.03
2022-12-04T10:13:24.155Z,24.37
2022-12-04T10:16:01.116Z,26.50
2022-12-04T10:18:41.300Z,26.00
2022-12-04T10:21:23.043Z,24.67
2022-12-04T10:24:10.850Z,27.20
2022-12-04T10:26:40.696Z,25.77
2022-12-04T10:29:12.314Z,25.70
2022-12-04T10:31:40.411Z,26.33
2022-12-04T10:34:13.758Z,25.93
2022-12-04T10:36:41.883Z,24.90
2022-12-04T10:39:21.671Z,26.20
2022-12-04T10:42:03.534Z,27.33
2022-12-04T10:44:30.062Z,25.80
2022-12-04T10:46:59.622Z,26.57
2022-12-04T10:49:28.758Z,25.10
2022-12-04T10:51:55.421Z,26.27
2022-12-04T10:54:32.700Z,26.73
2022-12-04T10:57:10.177Z,26.37
2022-12-04T11:00:00.612Z,23.67
2022-12-04T11:02:29.457Z,24.20
2022-12-04T11:05:00.275Z,25.10
2022-12-04T11:07:28.545Z,24.37
2022-12-04T11:10:01.576Z,25.83
2022-12-04T11:12:28.163Z,26.07
2022-12-04T11:15:06.646Z,26.37
2022-12-04T11:17:33.500Z,24.87
2022-12-04T11:20:13.042Z,25.93
2022-12-04T11:22:58.291Z,26.63
2022-12-04T11:25:32.461Z,26.53
2022-12-04T11:28:01.866Z,25.50
2022-12-04T11:30:34.639Z,26.07
2022-12-04T11:33:01.929Z,26.10
2022-12-04T11:35:29.550Z,28.53
2022-12-04T11:38:14.967Z,27.77
2022-12-04T11:40:52.568Z,27.33
2022-12-04T11:43:26.330Z,25.00
2022-12-04T11:46:00.180Z,27.63
2022-12-04T11:48:29.471Z,25.57
2022-12-04T11:51:20.793Z,24.50
2022-12-04T11:53:54.159Z,24.60
2022-12-04T11:56:23.656Z,26.73
2022-12-04T11:59:18.098Z,25.60
2022-12-04T12:02:26.241Z,24.80
2022-12-04T12:05:15.186Z,22.57
2022-12-04T12:08:16.297Z,24.57
2022-12-04T12:11:01.579Z,21.80
2022-12-04T12:14:06.714Z,24.77
2022-12-04T12:16:58.845Z,22.97
2022-12-04T12:19:51.314Z,22.83
2022-12-04T12:22:48.789Z,21.73
2022-12-04T12:25:20.044Z,21.50
2022-12-04T12:28:19.101Z,22.37
2022-12-04T12:31:02.477Z,21.37
2022-12-04T12:33:37.191Z,22.23
2022-12-04T12:36:07.075Z,23.37
2022-12-04T12:38:44.704Z,24.40
2022-12-04T12:41:14.853Z,22.70
2022-12-04T12:43:45.158Z,22.83
2022-12-04T12:46:31.511Z,23.17
2022-12-04T12:49:02.713Z,18.17
2022-12-04T12:51:35.571Z,22.33
2022-12-04T12:54:25.361Z,23.13
2022-12-04T12:56:56.831Z,24.67
2022-12-04T12:59:26.782Z,23.43
2022-12-04T13:02:01.465Z,22.07
2022-12-04T13:04:37.297Z,22.70
2022-12-04T13:07:20.647Z,23.87
2022-12-04T13:09:58.116Z,22.30
2022-12-04T13:12:25.217Z,24.10
2022-12-04T13:14:51.980Z,23.77
2022-12-04T13:17:31.977Z,22.97
2022-12-04T13:19:59.556Z,23.33
2022-12-04T13:22:31.848Z,23.77
2022-12-04T13:25:21.540Z,24.63
2022-12-04T13:28:06.677Z,23.77
2022-12-04T13:30:48.889Z,27.60
2022-12-04T13:33:22.678Z,23.97
2022-12-04T13:36:11.099Z,26.03
2022-12-04T13:38:59.393Z,24.87
2022-12-04T13:41:27.230Z,23.60
2022-12-04T13:43:54.159Z,23.87
2022-12-04T13:46:41.165Z,24.40
2022-12-04T13:49:08.970Z,24.07
2022-12-04T13:51:40.406Z,24.00
2022-12-04T13:54:12.745Z,24.67
2022-12-04T13:56:44.438Z,25.90
2022-12-04T13:59:23.138Z,24.77
2022-12-04T14:01:52.276Z,23.97
2022-12-04T14:04:27.486Z,23.17
2022-12-04T14:06:56.133Z,23.67
2022-12-04T14:09:27.909Z,23.13
2022-12-04T14:11:58.731Z,24.10
2022-12-04T14:14:28.222Z,22.77
2022-12-04T14:16:56.876Z,22.90
2022-12-04T14:19:36.128Z,23.10
2022-12-04T14:22:03.192Z,24.20
2022-12-04T14:24:38.385Z,22.10
2022-12-04T14:27:42.206Z,22.63
2022-12-04T14:30:36.461Z,23.20
2022-12-04T14:33:10.376Z,21.10
2022-12-04T14:35:45.577Z,21.77
2022-12-04T14:38:18.786Z,21.73
2022-12-04T14:40:48.630Z,22.53
2022-12-04T14:43:27.353Z,21.83
2022-12-04T14:46:03.514Z,21.97
2022-12-04T14:48:30.032Z,22.50
2022-12-04T14:51:04.473Z,21.87
2022-12-04T14:53:43.713Z,21.90
2022-12-04T14:56:17.837Z,23.47
2022-12-04T14:58:44.559Z,23.87
2022-12-04T15:01:48.650Z,22.53
2022-12-04T15:04:33.111Z,22.53
2022-12-04T15:07:00.836Z,21.57
2022-12-04T15:09:47.324Z,22.47
2022-12-04T15:12:36.372Z,24.40
2022-12-04T15:15:15.323Z,25.03
2022-12-04T15:17:41.723Z,23.30
2022-12-04T15:20:16.246Z,23.47
2022-12-04T15:22:42.833Z,22.40
2022-12-04T15:25:25.375Z,22.80
2022-12-04T15:27:53.999Z,23.00
2022-12-04T15:30:22.048Z,22.90
2022-12-04T15:32:50.707Z,23.83
2022-12-04T15:35:27.428Z,23.40
2022-12-04T15:37:54.905Z,21.90
2022-12-04T15:40:27.340Z,24.63
2022-12-04T15:42:54.558Z,24.10
2022-12-04T15:45:25.259Z,24.17
2022-12-04T15:47:53.901Z,23.77
2022-12-04T15:50:23.502Z,23.10
2022-12-04T15:52:51.260Z,24.23
2022-12-04T15:55:18.961Z,21.37
2022-12-04T15:57:51.686Z,23.00
2022-12-04T16:00:30.334Z,23.07
2022-12-04T16:02:57.649Z,24.37
2022-12-04T16:05:34.873Z,24.10
2022-12-04T16:08:21.528Z,23.90
2022-12-04T16:11:06.678Z,23.27
2022-12-04T16:13:38.530Z,22.07
2022-12-04T16:16:07.807Z,22.83
2022-12-04T16:18:34.669Z,24.43
2022-12-04T16:21:01.193Z,24.33
2022-12-04T16:23:27.988Z,23.50
2022-12-04T16:25:54.456Z,24.70
2022-12-04T16:28:21.018Z,24.70
2022-12-04T16:30:47.778Z,22.03
2022-12-04T16:33:15.878Z,23.43
2022-12-04T16:35:42.521Z,24.23
2022-12-04T16:38:14.422Z,25.23
2022-12-04T16:40:41.027Z,22.77
2022-12-04T16:43:08.651Z,21.63
2022-12-04T16:45:35.445Z,23.00
2022-12-04T16:48:01.903Z,24.57
2022-12-04T16:50:28.443Z,23.90
2022-12-04T16:52:57.605Z,23.73
2022-12-04T16:55:38.685Z,23.40
2022-12-04T16:58:05.663Z,23.60
2022-12-04T17:00:32.239Z,24.30
2022-12-04T17:02:58.756Z,21.30
2022-12-04T17:05:27.403Z,25.53
2022-12-04T17:07:54.374Z,23.93
2022-12-04T17:10:23.957Z,22.00
2022-12-04T17:12:54.286Z,25.30
2022-12-04T17:15:20.816Z,22.60
2022-12-04T17:17:47.268Z,24.87
2022-12-04T17:20:16.353Z,24.93
2022-12-04T17:22:42.963Z,23.43
2022-12-04T17:25:09.921Z,25.47
2022-12-04T17:27:36.822Z,24.47
2022-12-04T17:30:06.242Z,25.40
2022-12-04T17:32:33.656Z,25.57
2022-12-04T17:35:00.129Z,24.57
2022-12-04T17:37:26.746Z,25.30
2022-12-04T17:39:53.262Z,26.33
2022-12-04T17:42:20.304Z,23.63
2022-12-04T17:44:46.907Z,25.03
2022-12-04T17:47:13.624Z,26.23
2022-12-04T17:49:40.076Z,25.50
2022-12-04T17:52:06.668Z,26.03
2022-12-04T17:54:33.599Z,25.53
2022-12-04T17:57:00.113Z,26.70
2022-12-04T17:59:26.697Z,25.63
2022-12-04T18:01:53.211Z,25.10
2022-12-04T18:04:19.897Z,26.30
2022-12-04T18:06:47.060Z,25.33
2022-12-04T18:09:15.808Z,27.17
2022-12-04T18:11:47.002Z,25.53
2022-12-04T18:14:17.836Z,27.87
2022-12-04T18:16:53.671Z,25.97
2022-12-04T18:19:22.541Z,26.83
2022-12-04T18:21:49.544Z,25.73
2022-12-04T18:24:16.420Z,28.00
2022-12-04T18:26:46.192Z,28.87
2022-12-04T18:29:15.007Z,24.87
2022-12-04T18:31:41.997Z,27.57
2022-12-04T18:34:09.105Z,27.70
2022-12-04T18:36:36.736Z,27.17
2022-12-04T18:39:06.399Z,27.90
2022-12-04T18:41:33.021Z,26.23
2022-12-04T18:43:59.456Z,27.90
2022-12-04T18:46:26.102Z,27.73
2022-12-04T18:48:54.337Z,27.60
2022-12-04T18:51:22.901Z,29.70
2022-12-04T18:53:50.453Z,26.63
2022-12-04T18:56:18.244Z,30.80
2022-12-04T18:58:46.575Z,27.87
2022-12-04T19:01:19.029Z,26.73
2022-12-04T19:03:47.032Z,30.03
2022-12-04T19:06:14.195Z,29.33
2022-12-04T19:08:43.187Z,27.23
2022-12-04T19:11:13.143Z,27.43
2022-12-04T19:13:40.124Z,26.33
2022-12-04T19:16:17.093Z,26.27
2022-12-04T19:18:46.965Z,27.90
2022-12-04T19:21:14.613Z,27.47
2022-12-04T19:23:41.664Z,26.77
2022-12-04T19:26:08.338Z,25.00
2022-12-04T19:28:35.573Z,23.73
2022-12-04T19:31:01.990Z,22.97
2022-12-04T19:33:28.830Z,24.83
2022-12-04T19:36:05.667Z,24.60
2022-12-04T19:38:33.730Z,24.80
2022-12-04T19:41:11.370Z,24.77
2022-12-04T19:43:51.903Z,24.93
2022-12-04T19:46:21.373Z,24.80
2022-12-04T19:48:49.984Z,26.47
2022-12-04T19:51:19.392Z,24.77
2022-12-04T19:53:46.192Z,24.97
2022-12-04T19:56:22.325Z,24.63
2022-12-04T19:58:48.734Z,26.37
2022-12-04T20:01:16.866Z,25.57
2022-12-04T20:03:43.545Z,25.33
2022-12-04T20:06:15.062Z,25.47
2022-12-04T20:08:42.136Z,26.83
2022-12-04T20:11:11.781Z,25.27
2022-12-04T20:13:39.688Z,22.90
2022-12-04T20:16:08.434Z,26.27
2022-12-04T20:18:36.957Z,25.20
2022-12-04T20:21:04.991Z,24.10
2022-12-04T20:23:31.449Z,25.50
2022-12-04T20:26:04.046Z,25.43
2022-12-04T20:28:30.526Z,26.13
2022-12-04T20:30:57.655Z,22.43
2022-12-04T20:33:24.250Z,25.10
2022-12-04T20:35:50.968Z,22.63
2022-12-04T20:38:17.427Z,23.70
2022-12-04T20:40:43.871Z,22.67
2022-12-04T20:43:10.311Z,22.73
2022-12-04T20:45:36.743Z,23.23
2022-12-04T20:48:03.500Z,21.17
2022-12-04T20:50:30.104Z,21.53
2022-12-04T20:52:56.536Z,20.17
2022-12-04T20:55:23.032Z,22.53
2022-12-04T20:57:49.918Z,21.83
2022-12-04T21:00:16.692Z,20.73
2022-12-04T21:02:43.536Z,21.97
2022-12-04T21:05:10.091Z,20.50
2022-12-04T21:07:36.827Z,20.17
2022-12-04T21:10:04.025Z,18.27
2022-12-04T21:12:49.260Z,19.17
2022-12-04T21:15:34.305Z,18.57
2022-12-04T21:18:01.803Z,18.50
2022-12-04T21:20:28.345Z,17.23
2022-12-04T21:22:54.776Z,18.43
2022-12-04T21:25:21.312Z,20.13
2022-12-04T21:27:47.807Z,18.50
2022-12-04T21:30:14.621Z,19.40
2022-12-04T21:32:41.105Z,18.60
2022-12-04T21:35:07.931Z,18.60
2022-12-04T21:37:34.615Z,18.80
2022-12-04T21:40:01.415Z,18.23
2022-12-04T21:42:31.040Z,19.53
2022-12-04T21:44:58.840Z,18.47
2022-12-04T21:47:25.707Z,19.73
2022-12-04T21:49:52.155Z,19.90
2022-12-04T21:52:19.384Z,20.13
2022-12-04T21:54:49.561Z,19.93
2022-12-04T21:57:16.077Z,20.30
2022-12-04T21:59:42.567Z,20.33
2022-12-04T22:02:11.435Z,19.83
2022-12-04T22:04:37.908Z,20.70
2022-12-04T22:07:04.370Z,21.73
2022-12-04T22:09:30.779Z,21.70
2022-12-04T22:11:58.810Z,21.77
2022-12-04T22:14:25.259Z,21.37
2022-12-04T22:16:52.412Z,22.10
2022-12-04T22:19:19.123Z,22.27
2022-12-04T22:21:45.660Z,22.17
2022-12-04T22:24:12.277Z,20.97
2022-12-04T22:26:39.004Z,21.13
2022-12-04T22:29:26.977Z,22.73
2022-12-04T22:31:52.297Z,23.10
2022-12-04T22:34:18.766Z,21.70
2022-12-04T22:36:45.410Z,22.23
2022-12-04T22:39:11.831Z,22.57
2022-12-04T22:41:38.760Z,23.17
2022-12-04T22:44:06.014Z,23.60
2022-12-04T22:46:32.739Z,23.53
2022-12-04T22:48:59.969Z,24.30
2022-12-04T22:51:27.402Z,22.07
2022-12-04T22:53:55.594Z,23.60
2022-12-04T22:56:24.476Z,23.17
2022-12-04T22:58:51.403Z,22.90
2022-12-04T23:01:20.169Z,23.77
2022-12-04T23:03:47.638Z,22.37
2022-12-04T23:06:15.162Z,22.73
2022-12-04T23:08:42.715Z,23.37
2022-12-04T23:11:13.113Z,24.47
2022-12-04T23:13:39.991Z,24.47
2022-12-04T23:16:09.778Z,24.43
2022-12-04T23:18:37.291Z,23.30
2022-12-04T23:21:10.067Z,23.60
2022-12-04T23:23:38.196Z,24.33
2022-12-04T23:26:10.027Z,25.10
2022-12-04T23:28:37.059Z,24.17
2022-12-04T23:31:04.305Z,24.93
2022-12-04T23:33:31.759Z,22.70
2022-12-04T23:35:59.668Z,22.13
2022-12-04T23:38:27.215Z,23.83
2022-12-04T23:41:11.123Z,23.03
2022-12-04T23:43:38.168Z,23.80
2022-12-04T23:46:10.674Z,25.20
2022-12-04T23:48:37.895Z,23.10
2022-12-04T23:51:04.662Z,24.77
2022-12-04T23:53:31.251Z,24.00
2022-12-04T23:56:11.453Z,24.07
2022-12-04T23:58:38.567Z,24.47
